sensor_id;sensor_type;location;lat;lon;timestamp;temperature;humidity
14727;DHT22;7454;51.256;8.176;2023-05-10T00:00:08;14.30;82.20
14727;DHT22;7454;51.256;8.176;2023-05-10T00:02:38;14.30;82.20
14727;DHT22;7454;51.256;8.176;2023-05-10T00:05:04;14.20;82.10
14727;DHT22;7454;51.256;8.176;2023-05-10T00:07:30;14.10;81.80
14727;DHT22;7454;51.256;8.176;2023-05-10T00:09:56;14.10;81.80
14727;DHT22;7454;51.256;8.176;2023-05-10T00:12:21;14.00;81.70
14727;DHT22;7454;51.256;8.176;2023-05-10T00:14:47;14.10;81.70
14727;DHT22;7454;51.256;8.176;2023-05-10T00:17:13;13.90;81.70
14727;DHT22;7454;51.256;8.176;2023-05-10T00:19:38;13.80;81.70
14727;DHT22;7454;51.256;8.176;2023-05-10T00:22:04;13.80;81.90
14727;DHT22;7454;51.256;8.176;2023-05-10T00:24:29;13.90;81.90
14727;DHT22;7454;51.256;8.176;2023-05-10T00:26:55;13.80;81.80
14727;DHT22;7454;51.256;8.176;2023-05-10T00:29:21;13.70;81.70
14727;DHT22;7454;51.256;8.176;2023-05-10T00:31:46;13.90;81.70
14727;DHT22;7454;51.256;8.176;2023-05-10T00:34:12;13.70;81.80
14727;DHT22;7454;51.256;8.176;2023-05-10T00:36:37;13.70;81.70
14727;DHT22;7454;51.256;8.176;2023-05-10T00:39:03;13.70;81.80
14727;DHT22;7454;51.256;8.176;2023-05-10T00:41:29;13.80;81.80
14727;DHT22;7454;51.256;8.176;2023-05-10T00:43:58;13.60;81.80
14727;DHT22;7454;51.256;8.176;2023-05-10T00:46:24;13.90;81.90
14727;DHT22;7454;51.256;8.176;2023-05-10T00:48:50;13.70;81.70
14727;DHT22;7454;51.256;8.176;2023-05-10T00:51:15;13.60;81.80
14727;DHT22;7454;51.256;8.176;2023-05-10T00:53:41;13.60;81.90
14727;DHT22;7454;51.256;8.176;2023-05-10T00:56:08;13.80;82.00
14727;DHT22;7454;51.256;8.176;2023-05-10T00:58:34;13.80;82.00
14727;DHT22;7454;51.256;8.176;2023-05-10T01:01:00;13.80;81.90
14727;DHT22;7454;51.256;8.176;2023-05-10T01:03:25;13.80;81.80
14727;DHT22;7454;51.256;8.176;2023-05-10T01:05:51;13.80;81.80
14727;DHT22;7454;51.256;8.176;2023-05-10T01:08:17;13.80;81.80
14727;DHT22;7454;51.256;8.176;2023-05-10T01:10:43;13.90;81.80
14727;DHT22;7454;51.256;8.176;2023-05-10T01:13:09;13.80;81.90
14727;DHT22;7454;51.256;8.176;2023-05-10T01:15:35;13.80;81.80
14727;DHT22;7454;51.256;8.176;2023-05-10T01:18:01;13.90;81.80
14727;DHT22;7454;51.256;8.176;2023-05-10T01:20:41;13.80;81.70
14727;DHT22;7454;51.256;8.176;2023-05-10T01:26:05;13.80;81.80
14727;DHT22;7454;51.256;8.176;2023-05-10T01:35:10;13.80;81.80
14727;DHT22;7454;51.256;8.176;2023-05-10T01:37:21;13.80;81.60
14727;DHT22;7454;51.256;8.176;2023-05-10T01:42:29;13.70;81.70
14727;DHT22;7454;51.256;8.176;2023-05-10T01:45:05;13.70;81.70
14727;DHT22;7454;51.256;8.176;2023-05-10T01:50:37;13.70;81.70
14727;DHT22;7454;51.256;8.176;2023-05-10T01:53:06;13.70;81.70
14727;DHT22;7454;51.256;8.176;2023-05-10T01:55:35;13.80;81.70
14727;DHT22;7454;51.256;8.176;2023-05-10T01:58:09;13.70;81.80
14727;DHT22;7454;51.256;8.176;2023-05-10T02:00:35;13.70;81.70
14727;DHT22;7454;51.256;8.176;2023-05-10T02:03:03;13.60;81.60
14727;DHT22;7454;51.256;8.176;2023-05-10T02:05:31;13.60;81.70
14727;DHT22;7454;51.256;8.176;2023-05-10T02:07:57;13.60;81.80
14727;DHT22;7454;51.256;8.176;2023-05-10T02:10:24;13.60;81.70
14727;DHT22;7454;51.256;8.176;2023-05-10T02:12:50;13.50;81.70
14727;DHT22;7454;51.256;8.176;2023-05-10T02:15:23;13.60;82.00
14727;DHT22;7454;51.256;8.176;2023-05-10T02:17:50;13.60;81.80
14727;DHT22;7454;51.256;8.176;2023-05-10T02:20:16;13.70;81.80
14727;DHT22;7454;51.256;8.176;2023-05-10T02:22:44;13.50;81.60
14727;DHT22;7454;51.256;8.176;2023-05-10T02:25:10;13.50;81.70
14727;DHT22;7454;51.256;8.176;2023-05-10T02:27:38;13.50;81.80
14727;DHT22;7454;51.256;8.176;2023-05-10T02:30:07;13.50;81.80
14727;DHT22;7454;51.256;8.176;2023-05-10T02:32:33;13.50;81.70
14727;DHT22;7454;51.256;8.176;2023-05-10T02:34:59;13.40;81.50
14727;DHT22;7454;51.256;8.176;2023-05-10T02:37:27;13.50;81.60
14727;DHT22;7454;51.256;8.176;2023-05-10T02:39:53;13.40;81.70
14727;DHT22;7454;51.256;8.176;2023-05-10T02:42:20;13.50;81.80
14727;DHT22;7454;51.256;8.176;2023-05-10T02:44:52;13.40;81.70
14727;DHT22;7454;51.256;8.176;2023-05-10T02:47:19;13.50;81.70
14727;DHT22;7454;51.256;8.176;2023-05-10T02:49:45;13.40;81.50
14727;DHT22;7454;51.256;8.176;2023-05-10T02:52:10;13.40;81.60
14727;DHT22;7454;51.256;8.176;2023-05-10T02:54:44;13.40;81.60
14727;DHT22;7454;51.256;8.176;2023-05-10T02:57:13;13.40;81.60
14727;DHT22;7454;51.256;8.176;2023-05-10T02:59:41;13.30;81.40
14727;DHT22;7454;51.256;8.176;2023-05-10T03:02:08;13.50;81.60
14727;DHT22;7454;51.256;8.176;2023-05-10T03:04:34;13.40;81.50
14727;DHT22;7454;51.256;8.176;2023-05-10T03:07:00;13.30;81.60
14727;DHT22;7454;51.256;8.176;2023-05-10T03:09:26;13.30;81.60
14727;DHT22;7454;51.256;8.176;2023-05-10T03:17:29;13.30;81.60
14727;DHT22;7454;51.256;8.176;2023-05-10T03:20:04;13.30;81.60
14727;DHT22;7454;51.256;8.176;2023-05-10T03:22:37;13.30;81.60
14727;DHT22;7454;51.256;8.176;2023-05-10T03:25:06;13.20;81.50
14727;DHT22;7454;51.256;8.176;2023-05-10T03:27:33;13.40;81.60
14727;DHT22;7454;51.256;8.176;2023-05-10T03:30:01;13.30;81.50
14727;DHT22;7454;51.256;8.176;2023-05-10T03:32:29;13.40;81.60
14727;DHT22;7454;51.256;8.176;2023-05-10T03:34:57;13.40;81.60
14727;DHT22;7454;51.256;8.176;2023-05-10T03:37:24;13.30;81.50
14727;DHT22;7454;51.256;8.176;2023-05-10T03:39:49;13.40;81.60
14727;DHT22;7454;51.256;8.176;2023-05-10T03:42:15;13.40;81.50
14727;DHT22;7454;51.256;8.176;2023-05-10T03:44:43;13.40;81.70
14727;DHT22;7454;51.256;8.176;2023-05-10T03:47:08;13.30;81.50
14727;DHT22;7454;51.256;8.176;2023-05-10T03:49:34;13.40;81.70
14727;DHT22;7454;51.256;8.176;2023-05-10T03:52:00;13.30;81.70
14727;DHT22;7454;51.256;8.176;2023-05-10T03:54:26;13.40;81.80
14727;DHT22;7454;51.256;8.176;2023-05-10T03:56:52;13.40;81.80
14727;DHT22;7454;51.256;8.176;2023-05-10T03:59:19;13.30;81.70
14727;DHT22;7454;51.256;8.176;2023-05-10T04:01:45;13.30;81.70
14727;DHT22;7454;51.256;8.176;2023-05-10T04:04:11;13.40;81.70
14727;DHT22;7454;51.256;8.176;2023-05-10T04:06:37;13.40;81.80
14727;DHT22;7454;51.256;8.176;2023-05-10T04:09:03;13.50;81.80
14727;DHT22;7454;51.256;8.176;2023-05-10T04:11:29;13.40;81.70
14727;DHT22;7454;51.256;8.176;2023-05-10T04:13:55;13.50;81.80
14727;DHT22;7454;51.256;8.176;2023-05-10T04:16:21;13.30;81.80
14727;DHT22;7454;51.256;8.176;2023-05-10T04:18:46;13.50;82.00
14727;DHT22;7454;51.256;8.176;2023-05-10T04:21:12;13.40;81.90
14727;DHT22;7454;51.256;8.176;2023-05-10T04:23:38;13.30;81.80
14727;DHT22;7454;51.256;8.176;2023-05-10T04:26:04;13.30;82.00
14727;DHT22;7454;51.256;8.176;2023-05-10T04:28:30;13.40;82.10
14727;DHT22;7454;51.256;8.176;2023-05-10T04:31:05;13.40;82.10
14727;DHT22;7454;51.256;8.176;2023-05-10T04:33:32;13.30;82.10
14727;DHT22;7454;51.256;8.176;2023-05-10T04:35:58;13.30;82.20
14727;DHT22;7454;51.256;8.176;2023-05-10T04:38:24;13.30;82.10
14727;DHT22;7454;51.256;8.176;2023-05-10T04:40:49;13.20;82.30
14727;DHT22;7454;51.256;8.176;2023-05-10T04:43:15;13.40;82.20
14727;DHT22;7454;51.256;8.176;2023-05-10T04:45:41;13.40;82.20
14727;DHT22;7454;51.256;8.176;2023-05-10T04:48:06;13.40;82.20
14727;DHT22;7454;51.256;8.176;2023-05-10T04:50:32;13.40;82.00
14727;DHT22;7454;51.256;8.176;2023-05-10T04:52:58;13.30;82.00
14727;DHT22;7454;51.256;8.176;2023-05-10T04:55:24;13.40;82.00
14727;DHT22;7454;51.256;8.176;2023-05-10T04:57:50;13.40;82.00
14727;DHT22;7454;51.256;8.176;2023-05-10T05:00:16;13.30;82.00
14727;DHT22;7454;51.256;8.176;2023-05-10T05:02:42;13.40;82.20
14727;DHT22;7454;51.256;8.176;2023-05-10T05:05:11;13.30;82.20
14727;DHT22;7454;51.256;8.176;2023-05-10T05:07:37;13.30;82.30
14727;DHT22;7454;51.256;8.176;2023-05-10T05:10:04;13.40;82.40
14727;DHT22;7454;51.256;8.176;2023-05-10T05:12:33;13.40;82.10
14727;DHT22;7454;51.256;8.176;2023-05-10T05:14:59;13.40;82.10
14727;DHT22;7454;51.256;8.176;2023-05-10T05:17:25;13.40;82.10
14727;DHT22;7454;51.256;8.176;2023-05-10T05:19:51;13.40;82.00
14727;DHT22;7454;51.256;8.176;2023-05-10T05:22:17;13.50;81.40
14727;DHT22;7454;51.256;8.176;2023-05-10T05:24:42;13.50;81.30
14727;DHT22;7454;51.256;8.176;2023-05-10T05:27:08;13.40;81.30
14727;DHT22;7454;51.256;8.176;2023-05-10T05:29:34;13.50;81.60
14727;DHT22;7454;51.256;8.176;2023-05-10T05:31:59;13.50;81.50
14727;DHT22;7454;51.256;8.176;2023-05-10T05:34:25;13.50;81.30
14727;DHT22;7454;51.256;8.176;2023-05-10T05:36:51;13.50;81.20
14727;DHT22;7454;51.256;8.176;2023-05-10T05:39:17;13.40;81.10
14727;DHT22;7454;51.256;8.176;2023-05-10T05:41:42;13.40;81.10
14727;DHT22;7454;51.256;8.176;2023-05-10T05:44:08;13.40;81.20
14727;DHT22;7454;51.256;8.176;2023-05-10T05:46:34;13.40;81.20
14727;DHT22;7454;51.256;8.176;2023-05-10T05:49:00;13.40;81.10
14727;DHT22;7454;51.256;8.176;2023-05-10T05:51:25;13.40;81.40
14727;DHT22;7454;51.256;8.176;2023-05-10T05:53:51;13.20;81.20
14727;DHT22;7454;51.256;8.176;2023-05-10T05:56:17;13.40;81.50
14727;DHT22;7454;51.256;8.176;2023-05-10T05:58:52;13.50;81.50
14727;DHT22;7454;51.256;8.176;2023-05-10T06:01:18;13.40;81.50
14727;DHT22;7454;51.256;8.176;2023-05-10T06:03:44;13.50;81.60
14727;DHT22;7454;51.256;8.176;2023-05-10T06:06:09;13.40;81.40
14727;DHT22;7454;51.256;8.176;2023-05-10T06:08:35;13.40;81.50
14727;DHT22;7454;51.256;8.176;2023-05-10T06:11:01;13.50;81.40
14727;DHT22;7454;51.256;8.176;2023-05-10T06:13:26;13.50;81.40
14727;DHT22;7454;51.256;8.176;2023-05-10T06:16:00;13.50;81.30
14727;DHT22;7454;51.256;8.176;2023-05-10T06:18:27;13.50;81.40
14727;DHT22;7454;51.256;8.176;2023-05-10T06:20:53;13.70;81.40
14727;DHT22;7454;51.256;8.176;2023-05-10T06:23:18;13.60;81.50
14727;DHT22;7454;51.256;8.176;2023-05-10T06:25:44;13.70;81.50
14727;DHT22;7454;51.256;8.176;2023-05-10T06:28:10;13.80;81.50
14727;DHT22;7454;51.256;8.176;2023-05-10T06:30:35;13.80;81.40
14727;DHT22;7454;51.256;8.176;2023-05-10T06:33:02;13.90;81.40
14727;DHT22;7454;51.256;8.176;2023-05-10T06:35:28;13.90;81.30
14727;DHT22;7454;51.256;8.176;2023-05-10T06:37:54;13.90;81.20
14727;DHT22;7454;51.256;8.176;2023-05-10T06:40:19;13.90;81.20
14727;DHT22;7454;51.256;8.176;2023-05-10T06:42:46;13.90;81.10
14727;DHT22;7454;51.256;8.176;2023-05-10T06:45:12;13.90;81.00
14727;DHT22;7454;51.256;8.176;2023-05-10T06:47:39;13.90;81.10
14727;DHT22;7454;51.256;8.176;2023-05-10T06:50:06;14.00;81.30
14727;DHT22;7454;51.256;8.176;2023-05-10T06:52:35;13.90;81.30
14727;DHT22;7454;51.256;8.176;2023-05-10T06:55:01;14.00;81.40
14727;DHT22;7454;51.256;8.176;2023-05-10T06:57:27;14.00;81.30
14727;DHT22;7454;51.256;8.176;2023-05-10T06:59:52;13.80;81.30
14727;DHT22;7454;51.256;8.176;2023-05-10T07:02:18;14.00;81.30
14727;DHT22;7454;51.256;8.176;2023-05-10T07:04:43;13.90;81.20
14727;DHT22;7454;51.256;8.176;2023-05-10T07:07:09;14.00;81.50
14727;DHT22;7454;51.256;8.176;2023-05-10T07:09:35;14.00;81.30
14727;DHT22;7454;51.256;8.176;2023-05-10T07:12:00;14.00;81.50
14727;DHT22;7454;51.256;8.176;2023-05-10T07:14:27;14.10;81.30
14727;DHT22;7454;51.256;8.176;2023-05-10T07:16:53;14.30;81.30
14727;DHT22;7454;51.256;8.176;2023-05-10T07:19:18;14.20;81.30
14727;DHT22;7454;51.256;8.176;2023-05-10T07:21:45;14.30;81.30
14727;DHT22;7454;51.256;8.176;2023-05-10T07:24:10;14.20;81.20
14727;DHT22;7454;51.256;8.176;2023-05-10T07:26:36;14.40;81.30
14727;DHT22;7454;51.256;8.176;2023-05-10T07:29:02;14.50;81.40
14727;DHT22;7454;51.256;8.176;2023-05-10T07:31:28;14.40;81.20
14727;DHT22;7454;51.256;8.176;2023-05-10T07:33:53;14.40;81.30
14727;DHT22;7454;51.256;8.176;2023-05-10T07:36:19;14.50;81.40
14727;DHT22;7454;51.256;8.176;2023-05-10T07:38:44;14.60;81.50
14727;DHT22;7454;51.256;8.176;2023-05-10T07:41:13;14.70;81.40
14727;DHT22;7454;51.256;8.176;2023-05-10T07:43:39;14.80;81.40
14727;DHT22;7454;51.256;8.176;2023-05-10T07:46:05;14.90;81.10
14727;DHT22;7454;51.256;8.176;2023-05-10T07:48:31;15.00;81.20
14727;DHT22;7454;51.256;8.176;2023-05-10T07:50:56;15.00;81.00
14727;DHT22;7454;51.256;8.176;2023-05-10T07:53:22;15.00;81.00
14727;DHT22;7454;51.256;8.176;2023-05-10T07:55:51;15.00;81.10
14727;DHT22;7454;51.256;8.176;2023-05-10T07:58:18;15.10;81.00
14727;DHT22;7454;51.256;8.176;2023-05-10T08:00:43;15.10;80.70
14727;DHT22;7454;51.256;8.176;2023-05-10T08:03:09;15.20;81.10
14727;DHT22;7454;51.256;8.176;2023-05-10T08:05:35;15.30;81.10
14727;DHT22;7454;51.256;8.176;2023-05-10T08:08:00;15.40;80.70
14727;DHT22;7454;51.256;8.176;2023-05-10T08:10:26;15.50;80.60
14727;DHT22;7454;51.256;8.176;2023-05-10T08:12:52;15.30;80.50
14727;DHT22;7454;51.256;8.176;2023-05-10T08:15:17;15.30;80.60
14727;DHT22;7454;51.256;8.176;2023-05-10T08:17:43;15.30;80.70
14727;DHT22;7454;51.256;8.176;2023-05-10T08:20:09;15.30;80.70
14727;DHT22;7454;51.256;8.176;2023-05-10T08:22:34;15.30;80.70
14727;DHT22;7454;51.256;8.176;2023-05-10T08:25:00;15.30;80.60
14727;DHT22;7454;51.256;8.176;2023-05-10T08:27:25;15.40;80.80
14727;DHT22;7454;51.256;8.176;2023-05-10T08:29:51;15.30;80.20
14727;DHT22;7454;51.256;8.176;2023-05-10T08:32:17;15.40;80.70
14727;DHT22;7454;51.256;8.176;2023-05-10T08:34:43;15.50;80.60
14727;DHT22;7454;51.256;8.176;2023-05-10T08:37:08;15.50;80.50
14727;DHT22;7454;51.256;8.176;2023-05-10T08:39:35;15.60;80.60
14727;DHT22;7454;51.256;8.176;2023-05-10T08:42:02;15.40;80.50
14727;DHT22;7454;51.256;8.176;2023-05-10T08:44:32;15.60;80.70
14727;DHT22;7454;51.256;8.176;2023-05-10T08:47:02;15.50;80.80
14727;DHT22;7454;51.256;8.176;2023-05-10T08:49:30;15.50;81.10
14727;DHT22;7454;51.256;8.176;2023-05-10T08:51:56;15.70;81.00
14727;DHT22;7454;51.256;8.176;2023-05-10T08:54:23;15.80;81.30
14727;DHT22;7454;51.256;8.176;2023-05-10T08:56:49;15.90;81.20
14727;DHT22;7454;51.256;8.176;2023-05-10T08:59:15;16.00;80.60
14727;DHT22;7454;51.256;8.176;2023-05-10T09:01:41;16.00;80.50
14727;DHT22;7454;51.256;8.176;2023-05-10T09:04:09;15.90;80.40
14727;DHT22;7454;51.256;8.176;2023-05-10T09:06:35;15.90;80.40
14727;DHT22;7454;51.256;8.176;2023-05-10T09:09:01;15.90;80.30
14727;DHT22;7454;51.256;8.176;2023-05-10T09:11:27;15.90;80.00
14727;DHT22;7454;51.256;8.176;2023-05-10T09:13:54;15.90;80.10
14727;DHT22;7454;51.256;8.176;2023-05-10T09:16:20;15.80;80.10
14727;DHT22;7454;51.256;8.176;2023-05-10T09:18:46;16.00;79.80
14727;DHT22;7454;51.256;8.176;2023-05-10T09:21:11;15.90;79.80
14727;DHT22;7454;51.256;8.176;2023-05-10T09:23:37;16.00;80.00
14727;DHT22;7454;51.256;8.176;2023-05-10T09:26:06;16.00;80.10
14727;DHT22;7454;51.256;8.176;2023-05-10T09:28:33;16.10;80.50
14727;DHT22;7454;51.256;8.176;2023-05-10T09:30:59;16.20;80.30
14727;DHT22;7454;51.256;8.176;2023-05-10T09:33:25;16.30;80.20
14727;DHT22;7454;51.256;8.176;2023-05-10T09:35:51;16.20;80.20
14727;DHT22;7454;51.256;8.176;2023-05-10T09:38:17;16.20;80.60
14727;DHT22;7454;51.256;8.176;2023-05-10T09:40:45;16.40;80.30
14727;DHT22;7454;51.256;8.176;2023-05-10T09:43:19;16.30;80.10
14727;DHT22;7454;51.256;8.176;2023-05-10T09:45:45;16.50;80.40
14727;DHT22;7454;51.256;8.176;2023-05-10T09:48:14;16.60;80.30
14727;DHT22;7454;51.256;8.176;2023-05-10T09:50:40;16.60;80.30
14727;DHT22;7454;51.256;8.176;2023-05-10T09:53:06;16.80;79.60
14727;DHT22;7454;51.256;8.176;2023-05-10T09:58:01;16.90;79.90
14727;DHT22;7454;51.256;8.176;2023-05-10T10:00:27;16.90;79.70
14727;DHT22;7454;51.256;8.176;2023-05-10T10:02:55;16.90;80.10
14727;DHT22;7454;51.256;8.176;2023-05-10T10:05:27;16.90;79.70
14727;DHT22;7454;51.256;8.176;2023-05-10T10:08:03;16.90;79.90
14727;DHT22;7454;51.256;8.176;2023-05-10T10:10:30;16.80;79.90
14727;DHT22;7454;51.256;8.176;2023-05-10T10:12:57;16.80;79.90
14727;DHT22;7454;51.256;8.176;2023-05-10T10:15:23;16.90;80.00
14727;DHT22;7454;51.256;8.176;2023-05-10T10:17:49;17.00;79.90
14727;DHT22;7454;51.256;8.176;2023-05-10T10:20:16;16.90;80.00
14727;DHT22;7454;51.256;8.176;2023-05-10T10:22:42;17.10;79.90
14727;DHT22;7454;51.256;8.176;2023-05-10T10:25:20;17.10;79.60
14727;DHT22;7454;51.256;8.176;2023-05-10T10:27:55;16.90;79.50
14727;DHT22;7454;51.256;8.176;2023-05-10T10:30:50;16.80;79.70
14727;DHT22;7454;51.256;8.176;2023-05-10T10:36:19;16.60;79.90
14727;DHT22;7454;51.256;8.176;2023-05-10T10:41:22;16.70;79.90
14727;DHT22;7454;51.256;8.176;2023-05-10T10:47:21;17.00;80.00
14727;DHT22;7454;51.256;8.176;2023-05-10T10:50:07;16.90;79.70
14727;DHT22;7454;51.256;8.176;2023-05-10T10:52:34;16.80;79.40
14727;DHT22;7454;51.256;8.176;2023-05-10T10:57:33;16.70;79.50
14727;DHT22;7454;51.256;8.176;2023-05-10T11:03:12;16.80;79.70
14727;DHT22;7454;51.256;8.176;2023-05-10T11:05:40;16.80;79.80
14727;DHT22;7454;51.256;8.176;2023-05-10T11:10:34;16.90;79.60
14727;DHT22;7454;51.256;8.176;2023-05-10T11:13:03;16.90;79.40
14727;DHT22;7454;51.256;8.176;2023-05-10T11:15:37;17.10;79.10
14727;DHT22;7454;51.256;8.176;2023-05-10T11:18:20;17.10;78.80
14727;DHT22;7454;51.256;8.176;2023-05-10T11:23:18;17.30;78.90
14727;DHT22;7454;51.256;8.176;2023-05-10T11:25:45;17.40;78.80
14727;DHT22;7454;51.256;8.176;2023-05-10T11:28:11;17.40;78.50
14727;DHT22;7454;51.256;8.176;2023-05-10T11:30:38;17.50;78.50
14727;DHT22;7454;51.256;8.176;2023-05-10T11:33:05;17.60;78.60
14727;DHT22;7454;51.256;8.176;2023-05-10T11:35:32;17.60;78.70
14727;DHT22;7454;51.256;8.176;2023-05-10T11:38:02;17.80;78.70
14727;DHT22;7454;51.256;8.176;2023-05-10T11:40:30;17.80;78.40
14727;DHT22;7454;51.256;8.176;2023-05-10T11:42:56;17.80;78.40
14727;DHT22;7454;51.256;8.176;2023-05-10T11:45:23;17.80;78.30
14727;DHT22;7454;51.256;8.176;2023-05-10T11:47:49;17.90;78.00
14727;DHT22;7454;51.256;8.176;2023-05-10T11:50:15;17.90;78.40
14727;DHT22;7454;51.256;8.176;2023-05-10T11:52:41;17.80;78.20
14727;DHT22;7454;51.256;8.176;2023-05-10T11:55:07;17.80;78.50
14727;DHT22;7454;51.256;8.176;2023-05-10T11:57:33;17.80;78.50
14727;DHT22;7454;51.256;8.176;2023-05-10T11:59:58;17.90;78.40
14727;DHT22;7454;51.256;8.176;2023-05-10T12:02:24;17.80;78.40
14727;DHT22;7454;51.256;8.176;2023-05-10T12:04:50;17.90;78.70
14727;DHT22;7454;51.256;8.176;2023-05-10T12:07:16;17.90;78.70
14727;DHT22;7454;51.256;8.176;2023-05-10T12:12:43;17.90;78.80
14727;DHT22;7454;51.256;8.176;2023-05-10T12:15:11;17.80;78.70
14727;DHT22;7454;51.256;8.176;2023-05-10T12:17:38;17.90;78.90
14727;DHT22;7454;51.256;8.176;2023-05-10T12:20:21;17.90;78.60
14727;DHT22;7454;51.256;8.176;2023-05-10T12:22:52;17.90;78.90
14727;DHT22;7454;51.256;8.176;2023-05-10T12:25:19;18.10;79.10
14727;DHT22;7454;51.256;8.176;2023-05-10T12:27:50;18.20;78.80
14727;DHT22;7454;51.256;8.176;2023-05-10T12:30:27;18.20;78.50
14727;DHT22;7454;51.256;8.176;2023-05-10T12:32:54;18.20;78.60
14727;DHT22;7454;51.256;8.176;2023-05-10T12:35:25;17.90;77.80
14727;DHT22;7454;51.256;8.176;2023-05-10T12:37:51;17.60;77.90
14727;DHT22;7454;51.256;8.176;2023-05-10T12:40:16;17.30;78.30
14727;DHT22;7454;51.256;8.176;2023-05-10T12:42:42;17.00;78.40
14727;DHT22;7454;51.256;8.176;2023-05-10T12:45:10;16.70;78.30
14727;DHT22;7454;51.256;8.176;2023-05-10T12:47:36;16.50;78.70
14727;DHT22;7454;51.256;8.176;2023-05-10T12:50:02;16.30;79.10
14727;DHT22;7454;51.256;8.176;2023-05-10T12:52:29;16.20;79.30
14727;DHT22;7454;51.256;8.176;2023-05-10T12:54:56;16.10;79.40
14727;DHT22;7454;51.256;8.176;2023-05-10T12:57:22;16.00;79.50
14727;DHT22;7454;51.256;8.176;2023-05-10T12:59:48;15.90;79.80
14727;DHT22;7454;51.256;8.176;2023-05-10T13:02:14;15.90;79.70
14727;DHT22;7454;51.256;8.176;2023-05-10T13:04:40;15.90;80.10
14727;DHT22;7454;51.256;8.176;2023-05-10T13:07:07;16.10;80.20
14727;DHT22;7454;51.256;8.176;2023-05-10T13:09:33;16.00;80.00
14727;DHT22;7454;51.256;8.176;2023-05-10T13:11:58;16.20;80.20
14727;DHT22;7454;51.256;8.176;2023-05-10T13:14:24;16.30;80.10
14727;DHT22;7454;51.256;8.176;2023-05-10T13:16:50;16.40;80.00
14727;DHT22;7454;51.256;8.176;2023-05-10T13:19:16;16.50;80.10
14727;DHT22;7454;51.256;8.176;2023-05-10T13:21:42;16.60;79.80
14727;DHT22;7454;51.256;8.176;2023-05-10T13:24:09;16.80;79.80
14727;DHT22;7454;51.256;8.176;2023-05-10T13:26:36;16.70;79.40
14727;DHT22;7454;51.256;8.176;2023-05-10T13:29:02;16.80;79.60
14727;DHT22;7454;51.256;8.176;2023-05-10T13:31:28;16.80;79.50
14727;DHT22;7454;51.256;8.176;2023-05-10T13:33:54;16.80;79.40
14727;DHT22;7454;51.256;8.176;2023-05-10T13:36:19;16.80;79.30
14727;DHT22;7454;51.256;8.176;2023-05-10T13:38:45;16.80;79.40
14727;DHT22;7454;51.256;8.176;2023-05-10T13:41:11;16.80;79.60
14727;DHT22;7454;51.256;8.176;2023-05-10T13:43:37;16.70;79.50
14727;DHT22;7454;51.256;8.176;2023-05-10T13:46:02;16.50;79.40
14727;DHT22;7454;51.256;8.176;2023-05-10T13:48:28;16.50;79.70
14727;DHT22;7454;51.256;8.176;2023-05-10T13:50:54;16.40;79.90
14727;DHT22;7454;51.256;8.176;2023-05-10T13:53:20;16.30;80.00
14727;DHT22;7454;51.256;8.176;2023-05-10T13:55:46;16.30;79.90
14727;DHT22;7454;51.256;8.176;2023-05-10T13:58:12;16.30;80.40
14727;DHT22;7454;51.256;8.176;2023-05-10T14:00:38;16.30;80.50
14727;DHT22;7454;51.256;8.176;2023-05-10T14:03:03;16.20;80.50
14727;DHT22;7454;51.256;8.176;2023-05-10T14:05:30;16.20;80.80
14727;DHT22;7454;51.256;8.176;2023-05-10T14:07:56;16.20;80.50
14727;DHT22;7454;51.256;8.176;2023-05-10T14:10:22;16.30;80.80
14727;DHT22;7454;51.256;8.176;2023-05-10T14:12:48;16.40;81.10
14727;DHT22;7454;51.256;8.176;2023-05-10T14:15:13;16.40;81.00
14727;DHT22;7454;51.256;8.176;2023-05-10T14:17:39;16.40;80.70
14727;DHT22;7454;51.256;8.176;2023-05-10T14:20:05;16.40;80.50
14727;DHT22;7454;51.256;8.176;2023-05-10T14:22:31;16.60;80.70
14727;DHT22;7454;51.256;8.176;2023-05-10T14:24:56;16.70;80.80
14727;DHT22;7454;51.256;8.176;2023-05-10T14:27:23;16.80;80.70
14727;DHT22;7454;51.256;8.176;2023-05-10T14:29:49;16.80;80.60
14727;DHT22;7454;51.256;8.176;2023-05-10T14:32:14;16.80;80.00
14727;DHT22;7454;51.256;8.176;2023-05-10T14:34:40;16.80;79.90
14727;DHT22;7454;51.256;8.176;2023-05-10T14:37:05;16.80;79.80
14727;DHT22;7454;51.256;8.176;2023-05-10T14:39:31;16.90;80.10
14727;DHT22;7454;51.256;8.176;2023-05-10T14:41:58;16.90;80.00
14727;DHT22;7454;51.256;8.176;2023-05-10T14:44:24;16.90;80.20
14727;DHT22;7454;51.256;8.176;2023-05-10T14:46:49;16.90;80.20
14727;DHT22;7454;51.256;8.176;2023-05-10T14:49:15;16.90;79.90
14727;DHT22;7454;51.256;8.176;2023-05-10T14:51:40;16.80;79.40
14727;DHT22;7454;51.256;8.176;2023-05-10T14:54:06;17.00;80.00
14727;DHT22;7454;51.256;8.176;2023-05-10T14:56:32;17.00;79.90
14727;DHT22;7454;51.256;8.176;2023-05-10T14:58:57;17.00;79.80
14727;DHT22;7454;51.256;8.176;2023-05-10T15:01:24;16.90;79.60
14727;DHT22;7454;51.256;8.176;2023-05-10T15:03:50;16.90;79.60
14727;DHT22;7454;51.256;8.176;2023-05-10T15:06:16;16.90;79.60
14727;DHT22;7454;51.256;8.176;2023-05-10T15:08:41;16.80;79.70
14727;DHT22;7454;51.256;8.176;2023-05-10T15:11:07;16.80;79.50
14727;DHT22;7454;51.256;8.176;2023-05-10T15:13:32;16.70;79.60
14727;DHT22;7454;51.256;8.176;2023-05-10T15:15:58;16.70;79.70
14727;DHT22;7454;51.256;8.176;2023-05-10T15:18:24;16.70;79.60
14727;DHT22;7454;51.256;8.176;2023-05-10T15:20:49;16.80;79.60
14727;DHT22;7454;51.256;8.176;2023-05-10T15:23:15;16.60;79.60
14727;DHT22;7454;51.256;8.176;2023-05-10T15:25:41;16.60;79.60
14727;DHT22;7454;51.256;8.176;2023-05-10T15:28:07;16.50;79.50
14727;DHT22;7454;51.256;8.176;2023-05-10T15:30:32;16.30;79.30
14727;DHT22;7454;51.256;8.176;2023-05-10T15:32:58;16.20;79.20
14727;DHT22;7454;51.256;8.176;2023-05-10T15:35:25;16.10;79.50
14727;DHT22;7454;51.256;8.176;2023-05-10T15:37:51;16.00;79.70
14727;DHT22;7454;51.256;8.176;2023-05-10T15:40:16;15.90;79.70
14727;DHT22;7454;51.256;8.176;2023-05-10T15:42:42;15.80;79.60
14727;DHT22;7454;51.256;8.176;2023-05-10T15:45:08;15.70;79.60
14727;DHT22;7454;51.256;8.176;2023-05-10T15:47:34;15.70;79.80
14727;DHT22;7454;51.256;8.176;2023-05-10T15:50:00;15.60;80.00
14727;DHT22;7454;51.256;8.176;2023-05-10T15:52:25;15.60;80.10
14727;DHT22;7454;51.256;8.176;2023-05-10T15:54:51;15.50;80.30
14727;DHT22;7454;51.256;8.176;2023-05-10T15:57:17;15.50;80.40
14727;DHT22;7454;51.256;8.176;2023-05-10T15:59:42;15.40;80.30
14727;DHT22;7454;51.256;8.176;2023-05-10T16:02:08;15.40;80.60
14727;DHT22;7454;51.256;8.176;2023-05-10T16:04:35;15.40;80.70
14727;DHT22;7454;51.256;8.176;2023-05-10T16:07:01;15.40;80.60
14727;DHT22;7454;51.256;8.176;2023-05-10T16:09:26;15.50;80.60
14727;DHT22;7454;51.256;8.176;2023-05-10T16:11:52;15.50;80.30
14727;DHT22;7454;51.256;8.176;2023-05-10T16:14:18;15.50;80.20
14727;DHT22;7454;51.256;8.176;2023-05-10T16:16:46;15.60;80.50
14727;DHT22;7454;51.256;8.176;2023-05-10T16:19:12;15.50;80.30
14727;DHT22;7454;51.256;8.176;2023-05-10T16:21:37;15.50;80.40
14727;DHT22;7454;51.256;8.176;2023-05-10T16:24:03;15.60;80.30
14727;DHT22;7454;51.256;8.176;2023-05-10T16:26:29;15.60;80.70